sensor_id;sensor_type;location;lat;lon;timestamp;P1;durP1;ratioP1;P2;durP2;ratioP2
82034;SDS011;71599;49.892;18.914;2024-03-08T00:03:11;35.80;;;19.00;;
82034;SDS011;71599;49.892;18.914;2024-03-08T00:08:12;34.33;;;17.90;;
82034;SDS011;71599;49.892;18.914;2024-03-08T00:13:15;33.10;;;18.08;;
82034;SDS011;71599;49.892;18.914;2024-03-08T00:18:16;36.55;;;19.40;;
82034;SDS011;71599;49.892;18.914;2024-03-08T00:23:16;31.75;;;17.10;;
82034;SDS011;71599;49.892;18.914;2024-03-08T00:28:19;38.42;;;18.42;;
82034;SDS011;71599;49.892;18.914;2024-03-08T00:39:16;33.72;;;17.92;;
82034;SDS011;71599;49.892;18.914;2024-03-08T00:44:19;34.50;;;17.60;;
82034;SDS011;71599;49.892;18.914;2024-03-08T00:49:19;36.97;;;18.17;;
82034;SDS011;71599;49.892;18.914;2024-03-08T00:54:20;34.85;;;17.85;;
82034;SDS011;71599;49.892;18.914;2024-03-08T00:59:22;37.00;;;18.90;;
82034;SDS011;71599;49.892;18.914;2024-03-08T01:04:23;31.90;;;18.38;;
82034;SDS011;71599;49.892;18.914;2024-03-08T01:09:24;40.80;;;17.63;;
82034;SDS011;71599;49.892;18.914;2024-03-08T01:14:26;29.63;;;17.10;;
82034;SDS011;71599;49.892;18.914;2024-03-08T01:19:27;34.30;;;18.52;;
82034;SDS011;71599;49.892;18.914;2024-03-08T01:24:28;33.97;;;18.02;;
82034;SDS011;71599;49.892;18.914;2024-03-08T01:29:30;34.67;;;17.95;;
82034;SDS011;71599;49.892;18.914;2024-03-08T01:34:31;33.67;;;17.25;;
82034;SDS011;71599;49.892;18.914;2024-03-08T01:39:32;36.58;;;18.42;;
82034;SDS011;71599;49.892;18.914;2024-03-08T01:44:34;35.55;;;19.05;;
82034;SDS011;71599;49.892;18.914;2024-03-08T01:54:35;37.15;;;16.88;;
82034;SDS011;71599;49.892;18.914;2024-03-08T01:59:38;35.22;;;18.80;;
82034;SDS011;71599;49.892;18.914;2024-03-08T02:04:39;53.35;;;24.83;;
82034;SDS011;71599;49.892;18.914;2024-03-08T02:09:40;31.98;;;18.75;;
82034;SDS011;71599;49.892;18.914;2024-03-08T02:14:43;36.90;;;19.13;;
82034;SDS011;71599;49.892;18.914;2024-03-08T02:19:43;35.55;;;19.33;;
82034;SDS011;71599;49.892;18.914;2024-03-08T02:24:46;37.97;;;18.67;;
82034;SDS011;71599;49.892;18.914;2024-03-08T02:29:47;42.85;;;18.33;;
82034;SDS011;71599;49.892;18.914;2024-03-08T02:34:48;32.00;;;18.15;;
82034;SDS011;71599;49.892;18.914;2024-03-08T02:39:50;36.20;;;18.63;;
82034;SDS011;71599;49.892;18.914;2024-03-08T02:49:51;32.35;;;17.80;;
82034;SDS011;71599;49.892;18.914;2024-03-08T02:54:54;35.97;;;17.98;;
82034;SDS011;71599;49.892;18.914;2024-03-08T02:59:55;36.17;;;17.48;;
82034;SDS011;71599;49.892;18.914;2024-03-08T03:04:55;33.08;;;17.25;;
82034;SDS011;71599;49.892;18.914;2024-03-08T03:09:58;33.97;;;17.45;;
82034;SDS011;71599;49.892;18.914;2024-03-08T03:14:58;27.42;;;15.55;;
82034;SDS011;71599;49.892;18.914;2024-03-08T03:20:00;40.92;;;18.33;;
82034;SDS011;71599;49.892;18.914;2024-03-08T03:25:02;38.00;;;19.83;;
82034;SDS011;71599;49.892;18.914;2024-03-08T03:30:04;33.45;;;18.27;;
82034;SDS011;71599;49.892;18.914;2024-03-08T03:35:06;33.72;;;18.42;;
82034;SDS011;71599;49.892;18.914;2024-03-08T03:40:09;34.78;;;17.15;;
82034;SDS011;71599;49.892;18.914;2024-03-08T03:45:10;33.13;;;17.63;;
82034;SDS011;71599;49.892;18.914;2024-03-08T03:50:11;35.05;;;19.83;;
82034;SDS011;71599;49.892;18.914;2024-03-08T03:55:13;35.17;;;17.50;;
82034;SDS011;71599;49.892;18.914;2024-03-08T04:00:14;35.13;;;18.10;;
82034;SDS011;71599;49.892;18.914;2024-03-08T04:05:16;33.90;;;16.67;;
82034;SDS011;71599;49.892;18.914;2024-03-08T04:10:18;34.90;;;17.17;;
82034;SDS011;71599;49.892;18.914;2024-03-08T04:15:19;35.28;;;18.73;;
82034;SDS011;71599;49.892;18.914;2024-03-08T04:20:20;30.95;;;17.33;;
82034;SDS011;71599;49.892;18.914;2024-03-08T04:25:22;38.95;;;19.95;;
82034;SDS011;71599;49.892;18.914;2024-03-08T04:30:23;31.55;;;16.58;;
82034;SDS011;71599;49.892;18.914;2024-03-08T04:35:24;31.63;;;17.40;;
82034;SDS011;71599;49.892;18.914;2024-03-08T04:40:26;33.58;;;17.25;;
82034;SDS011;71599;49.892;18.914;2024-03-08T04:45:27;35.25;;;16.90;;
82034;SDS011;71599;49.892;18.914;2024-03-08T04:50:28;36.33;;;18.02;;
82034;SDS011;71599;49.892;18.914;2024-03-08T04:55:30;33.72;;;17.88;;
82034;SDS011;71599;49.892;18.914;2024-03-08T05:00:31;35.55;;;16.70;;
82034;SDS011;71599;49.892;18.914;2024-03-08T05:05:32;36.65;;;19.92;;
82034;SDS011;71599;49.892;18.914;2024-03-08T05:10:34;35.13;;;19.45;;
82034;SDS011;71599;49.892;18.914;2024-03-08T05:15:35;39.22;;;18.30;;
82034;SDS011;71599;49.892;18.914;2024-03-08T05:20:36;33.60;;;18.25;;
82034;SDS011;71599;49.892;18.914;2024-03-08T05:25:38;38.63;;;19.25;;
82034;SDS011;71599;49.892;18.914;2024-03-08T05:30:39;45.00;;;19.35;;
82034;SDS011;71599;49.892;18.914;2024-03-08T05:35:40;37.22;;;19.35;;
82034;SDS011;71599;49.892;18.914;2024-03-08T05:40:42;42.22;;;18.83;;
82034;SDS011;71599;49.892;18.914;2024-03-08T05:45:43;39.85;;;20.17;;
82034;SDS011;71599;49.892;18.914;2024-03-08T05:50:44;42.33;;;19.98;;
82034;SDS011;71599;49.892;18.914;2024-03-08T05:55:46;36.60;;;18.00;;
82034;SDS011;71599;49.892;18.914;2024-03-08T06:00:47;37.17;;;19.60;;
82034;SDS011;71599;49.892;18.914;2024-03-08T06:05:48;37.20;;;20.63;;
82034;SDS011;71599;49.892;18.914;2024-03-08T06:10:50;31.63;;;17.20;;
82034;SDS011;71599;49.892;18.914;2024-03-08T06:15:51;32.20;;;16.45;;
82034;SDS011;71599;49.892;18.914;2024-03-08T06:20:52;37.03;;;16.52;;
82034;SDS011;71599;49.892;18.914;2024-03-08T06:25:54;28.75;;;16.05;;
82034;SDS011;71599;49.892;18.914;2024-03-08T06:30:55;35.50;;;18.17;;
82034;SDS011;71599;49.892;18.914;2024-03-08T06:35:56;33.58;;;17.10;;
82034;SDS011;71599;49.892;18.914;2024-03-08T06:40:58;27.08;;;14.75;;
82034;SDS011;71599;49.892;18.914;2024-03-08T06:51:00;37.05;;;17.70;;
82034;SDS011;71599;49.892;18.914;2024-03-08T06:56:02;26.42;;;14.43;;
82034;SDS011;71599;49.892;18.914;2024-03-08T07:01:03;30.63;;;15.75;;
82034;SDS011;71599;49.892;18.914;2024-03-08T07:06:04;29.48;;;16.67;;
82034;SDS011;71599;49.892;18.914;2024-03-08T07:11:07;32.83;;;16.23;;
82034;SDS011;71599;49.892;18.914;2024-03-08T07:16:08;38.90;;;18.30;;
82034;SDS011;71599;49.892;18.914;2024-03-08T07:21:08;32.88;;;16.63;;
82034;SDS011;71599;49.892;18.914;2024-03-08T07:26:11;30.30;;;16.50;;
82034;SDS011;71599;49.892;18.914;2024-03-08T07:31:15;31.30;;;17.20;;
82034;SDS011;71599;49.892;18.914;2024-03-08T07:36:16;30.95;;;15.73;;
82034;SDS011;71599;49.892;18.914;2024-03-08T07:41:18;30.02;;;17.08;;
82034;SDS011;71599;49.892;18.914;2024-03-08T07:46:19;31.15;;;16.08;;
82034;SDS011;71599;49.892;18.914;2024-03-08T07:51:20;34.83;;;17.15;;
82034;SDS011;71599;49.892;18.914;2024-03-08T07:56:22;29.45;;;14.20;;
82034;SDS011;71599;49.892;18.914;2024-03-08T08:01:23;25.60;;;14.05;;
82034;SDS011;71599;49.892;18.914;2024-03-08T08:06:24;30.45;;;14.93;;
82034;SDS011;71599;49.892;18.914;2024-03-08T08:11:27;24.48;;;14.02;;
82034;SDS011;71599;49.892;18.914;2024-03-08T08:16:28;27.65;;;15.02;;
82034;SDS011;71599;49.892;18.914;2024-03-08T08:21:29;24.73;;;14.55;;
82034;SDS011;71599;49.892;18.914;2024-03-08T08:26:31;27.27;;;14.55;;
82034;SDS011;71599;49.892;18.914;2024-03-08T08:31:32;27.65;;;13.15;;
82034;SDS011;71599;49.892;18.914;2024-03-08T08:36:33;25.15;;;14.00;;
82034;SDS011;71599;49.892;18.914;2024-03-08T08:41:35;24.75;;;13.57;;
82034;SDS011;71599;49.892;18.914;2024-03-08T08:46:36;24.60;;;13.05;;
82034;SDS011;71599;49.892;18.914;2024-03-08T08:51:37;26.40;;;15.32;;
82034;SDS011;71599;49.892;18.914;2024-03-08T08:56:39;26.95;;;14.60;;
82034;SDS011;71599;49.892;18.914;2024-03-08T09:01:40;25.67;;;13.23;;
82034;SDS011;71599;49.892;18.914;2024-03-08T09:06:41;24.52;;;13.82;;
82034;SDS011;71599;49.892;18.914;2024-03-08T09:11:45;28.55;;;14.32;;
82034;SDS011;71599;49.892;18.914;2024-03-08T09:16:45;24.17;;;14.05;;
82034;SDS011;71599;49.892;18.914;2024-03-08T09:21:46;26.95;;;13.35;;
82034;SDS011;71599;49.892;18.914;2024-03-08T09:26:49;26.83;;;13.95;;
82034;SDS011;71599;49.892;18.914;2024-03-08T09:31:49;24.30;;;14.95;;
82034;SDS011;71599;49.892;18.914;2024-03-08T09:36:50;32.05;;;16.08;;
82034;SDS011;71599;49.892;18.914;2024-03-08T09:41:53;29.67;;;16.60;;
82034;SDS011;71599;49.892;18.914;2024-03-08T09:46:53;32.72;;;16.25;;
82034;SDS011;71599;49.892;18.914;2024-03-08T09:51:55;27.45;;;15.65;;
82034;SDS011;71599;49.892;18.914;2024-03-08T09:56:57;28.35;;;15.18;;
82034;SDS011;71599;49.892;18.914;2024-03-08T10:01:58;29.40;;;14.95;;
82034;SDS011;71599;49.892;18.914;2024-03-08T10:06:59;30.50;;;17.13;;
82034;SDS011;71599;49.892;18.914;2024-03-08T10:12:03;27.52;;;15.90;;
82034;SDS011;71599;49.892;18.914;2024-03-08T10:17:05;27.67;;;15.00;;
82034;SDS011;71599;49.892;18.914;2024-03-08T10:22:06;31.65;;;18.77;;
82034;SDS011;71599;49.892;18.914;2024-03-08T10:27:17;29.15;;;15.95;;
82034;SDS011;71599;49.892;18.914;2024-03-08T10:32:18;31.33;;;16.50;;
82034;SDS011;71599;49.892;18.914;2024-03-08T10:37:21;25.77;;;14.00;;
82034;SDS011;71599;49.892;18.914;2024-03-08T10:42:25;28.33;;;16.33;;
82034;SDS011;71599;49.892;18.914;2024-03-08T10:47:29;31.40;;;15.75;;
82034;SDS011;71599;49.892;18.914;2024-03-08T10:52:31;27.58;;;16.95;;
82034;SDS011;71599;49.892;18.914;2024-03-08T10:57:34;27.35;;;15.38;;
82034;SDS011;71599;49.892;18.914;2024-03-08T11:02:37;31.10;;;16.63;;
82034;SDS011;71599;49.892;18.914;2024-03-08T11:07:38;29.60;;;17.27;;
82034;SDS011;71599;49.892;18.914;2024-03-08T11:12:42;29.23;;;15.00;;
82034;SDS011;71599;49.892;18.914;2024-03-08T11:17:47;28.15;;;15.98;;
82034;SDS011;71599;49.892;18.914;2024-03-08T11:22:49;29.73;;;16.92;;
82034;SDS011;71599;49.892;18.914;2024-03-08T11:27:57;27.42;;;15.73;;
82034;SDS011;71599;49.892;18.914;2024-03-08T11:33:09;26.55;;;13.95;;
82034;SDS011;71599;49.892;18.914;2024-03-08T11:38:12;29.83;;;15.88;;
82034;SDS011;71599;49.892;18.914;2024-03-08T11:43:14;31.40;;;17.42;;
82034;SDS011;71599;49.892;18.914;2024-03-08T11:48:16;30.90;;;17.15;;
82034;SDS011;71599;49.892;18.914;2024-03-08T11:53:17;32.58;;;15.98;;
82034;SDS011;71599;49.892;18.914;2024-03-08T11:58:19;30.35;;;17.38;;
82034;SDS011;71599;49.892;18.914;2024-03-08T12:03:20;37.95;;;18.17;;
82034;SDS011;71599;49.892;18.914;2024-03-08T12:08:21;29.08;;;16.20;;
82034;SDS011;71599;49.892;18.914;2024-03-08T12:13:23;31.17;;;17.40;;
82034;SDS011;71599;49.892;18.914;2024-03-08T12:18:25;26.25;;;16.55;;
82034;SDS011;71599;49.892;18.914;2024-03-08T12:23:26;31.48;;;18.55;;
82034;SDS011;71599;49.892;18.914;2024-03-08T12:28:28;30.00;;;17.23;;
82034;SDS011;71599;49.892;18.914;2024-03-08T12:33:29;29.83;;;16.83;;
82034;SDS011;71599;49.892;18.914;2024-03-08T12:38:30;28.48;;;17.48;;
82034;SDS011;71599;49.892;18.914;2024-03-08T12:43:32;29.60;;;15.98;;
82034;SDS011;71599;49.892;18.914;2024-03-08T12:48:34;28.08;;;17.05;;
82034;SDS011;71599;49.892;18.914;2024-03-08T12:53:35;29.10;;;16.60;;
82034;SDS011;71599;49.892;18.914;2024-03-08T12:58:37;28.73;;;16.70;;
82034;SDS011;71599;49.892;18.914;2024-03-08T13:03:38;26.15;;;15.93;;
82034;SDS011;71599;49.892;18.914;2024-03-08T13:08:39;29.95;;;17.75;;
82034;SDS011;71599;49.892;18.914;2024-03-08T13:13:41;33.08;;;17.83;;
82034;SDS011;71599;49.892;18.914;2024-03-08T13:18:42;43.13;;;21.35;;
82034;SDS011;71599;49.892;18.914;2024-03-08T13:23:44;27.95;;;16.70;;
82034;SDS011;71599;49.892;18.914;2024-03-08T13:28:46;34.08;;;17.98;;
82034;SDS011;71599;49.892;18.914;2024-03-08T13:33:48;31.45;;;17.08;;
82034;SDS011;71599;49.892;18.914;2024-03-08T13:38:49;30.02;;;17.90;;
82034;SDS011;71599;49.892;18.914;2024-03-08T13:43:51;28.50;;;16.42;;
82034;SDS011;71599;49.892;18.914;2024-03-08T13:48:52;31.42;;;16.45;;
82034;SDS011;71599;49.892;18.914;2024-03-08T13:53:54;36.25;;;19.55;;
82034;SDS011;71599;49.892;18.914;2024-03-08T13:58:57;32.33;;;17.73;;
82034;SDS011;71599;49.892;18.914;2024-03-08T14:03:58;30.85;;;18.13;;
82034;SDS011;71599;49.892;18.914;2024-03-08T14:08:58;34.50;;;17.83;;
82034;SDS011;71599;49.892;18.914;2024-03-08T14:14:01;34.17;;;20.52;;
82034;SDS011;71599;49.892;18.914;2024-03-08T14:19:02;34.95;;;21.77;;
82034;SDS011;71599;49.892;18.914;2024-03-08T14:24:03;33.28;;;16.55;;
82034;SDS011;71599;49.892;18.914;2024-03-08T14:29:05;30.25;;;16.33;;
82034;SDS011;71599;49.892;18.914;2024-03-08T14:34:06;34.25;;;18.48;;
82034;SDS011;71599;49.892;18.914;2024-03-08T14:39:07;32.45;;;18.38;;
82034;SDS011;71599;49.892;18.914;2024-03-08T14:44:10;31.98;;;16.88;;
82034;SDS011;71599;49.892;18.914;2024-03-08T14:49:11;34.67;;;19.88;;
82034;SDS011;71599;49.892;18.914;2024-03-08T14:54:12;35.65;;;18.60;;
82034;SDS011;71599;49.892;18.914;2024-03-08T14:59:14;33.15;;;17.38;;
82034;SDS011;71599;49.892;18.914;2024-03-08T15:04:15;69.97;;;33.15;;
82034;SDS011;71599;49.892;18.914;2024-03-08T15:09:15;41.33;;;22.73;;
82034;SDS011;71599;49.892;18.914;2024-03-08T15:14:18;35.78;;;19.92;;
82034;SDS011;71599;49.892;18.914;2024-03-08T15:19:18;36.83;;;19.05;;
82034;SDS011;71599;49.892;18.914;2024-03-08T15:24:19;34.90;;;17.90;;
82034;SDS011;71599;49.892;18.914;2024-03-08T15:29:22;39.75;;;19.75;;
82034;SDS011;71599;49.892;18.914;2024-03-08T15:34:23;33.28;;;19.23;;
82034;SDS011;71599;49.892;18.914;2024-03-08T15:39:23;38.38;;;19.73;;
82034;SDS011;71599;49.892;18.914;2024-03-08T15:44:26;47.08;;;22.20;;
82034;SDS011;71599;49.892;18.914;2024-03-08T15:49:27;47.80;;;23.25;;
82034;SDS011;71599;49.892;18.914;2024-03-08T15:54:27;55.20;;;26.70;;
82034;SDS011;71599;49.892;18.914;2024-03-08T15:59:30;52.15;;;26.05;;
82034;SDS011;71599;49.892;18.914;2024-03-08T16:04:31;37.15;;;19.63;;
82034;SDS011;71599;49.892;18.914;2024-03-08T16:09:34;73.18;;;30.33;;
82034;SDS011;71599;49.892;18.914;2024-03-08T16:14:37;34.80;;;18.38;;
82034;SDS011;71599;49.892;18.914;2024-03-08T16:19:38;37.97;;;20.55;;
82034;SDS011;71599;49.892;18.914;2024-03-08T16:24:39;42.13;;;21.55;;
82034;SDS011;71599;49.892;18.914;2024-03-08T16:29:44;42.90;;;21.98;;
82034;SDS011;71599;49.892;18.914;2024-03-08T16:34:45;48.53;;;24.52;;
82034;SDS011;71599;49.892;18.914;2024-03-08T16:39:46;62.15;;;33.88;;
82034;SDS011;71599;49.892;18.914;2024-03-08T16:44:49;54.97;;;31.75;;
82034;SDS011;71599;49.892;18.914;2024-03-08T16:49:49;52.70;;;28.10;;
82034;SDS011;71599;49.892;18.914;2024-03-08T16:54:50;59.13;;;32.95;;
82034;SDS011;71599;49.892;18.914;2024-03-08T16:59:53;72.65;;;40.40;;
82034;SDS011;71599;49.892;18.914;2024-03-08T17:04:54;77.15;;;41.72;;
82034;SDS011;71599;49.892;18.914;2024-03-08T17:09:55;213.38;;;93.72;;
82034;SDS011;71599;49.892;18.914;2024-03-08T17:14:57;94.80;;;48.60;;
82034;SDS011;71599;49.892;18.914;2024-03-08T17:19:58;91.88;;;46.65;;
82034;SDS011;71599;49.892;18.914;2024-03-08T17:24:59;78.95;;;35.33;;
82034;SDS011;71599;49.892;18.914;2024-03-08T17:30:01;88.95;;;41.30;;
82034;SDS011;71599;49.892;18.914;2024-03-08T17:35:02;82.68;;;39.90;;
82034;SDS011;71599;49.892;18.914;2024-03-08T17:40:04;87.70;;;44.03;;
82034;SDS011;71599;49.892;18.914;2024-03-08T17:45:07;101.85;;;48.60;;
82034;SDS011;71599;49.892;18.914;2024-03-08T17:50:08;91.40;;;40.25;;
82034;SDS011;71599;49.892;18.914;2024-03-08T17:55:10;81.32;;;38.60;;
82034;SDS011;71599;49.892;18.914;2024-03-08T18:00:13;106.47;;;49.08;;
82034;SDS011;71599;49.892;18.914;2024-03-08T18:05:16;94.68;;;45.20;;
82034;SDS011;71599;49.892;18.914;2024-03-08T18:10:17;106.55;;;53.13;;
82034;SDS011;71599;49.892;18.914;2024-03-08T18:15:19;104.93;;;48.72;;
82034;SDS011;71599;49.892;18.914;2024-03-08T18:20:20;106.78;;;48.90;;
82034;SDS011;71599;49.892;18.914;2024-03-08T18:25:22;203.13;;;100.57;;
82034;SDS011;71599;49.892;18.914;2024-03-08T18:30:24;143.07;;;68.78;;
82034;SDS011;71599;49.892;18.914;2024-03-08T18:35:26;107.18;;;50.75;;
82034;SDS011;71599;49.892;18.914;2024-03-08T18:40:27;97.32;;;48.33;;
82034;SDS011;71599;49.892;18.914;2024-03-08T18:45:29;84.72;;;40.22;;
82034;SDS011;71599;49.892;18.914;2024-03-08T18:50:30;74.78;;;35.80;;
82034;SDS011;71599;49.892;18.914;2024-03-08T18:55:31;73.63;;;34.13;;
82034;SDS011;71599;49.892;18.914;2024-03-08T19:00:33;62.50;;;32.38;;
82034;SDS011;71599;49.892;18.914;2024-03-08T19:05:34;73.22;;;35.08;;
82034;SDS011;71599;49.892;18.914;2024-03-08T19:10:36;83.38;;;40.40;;
82034;SDS011;71599;49.892;18.914;2024-03-08T19:15:38;71.18;;;32.97;;
82034;SDS011;71599;49.892;18.914;2024-03-08T19:20:39;97.82;;;48.67;;
82034;SDS011;71599;49.892;18.914;2024-03-08T19:25:40;84.78;;;40.42;;
82034;SDS011;71599;49.892;18.914;2024-03-08T19:30:42;542.33;;;238.73;;
82034;SDS011;71599;49.892;18.914;2024-03-08T19:35:46;185.05;;;77.25;;
82034;SDS011;71599;49.892;18.914;2024-03-08T19:40:47;163.18;;;69.07;;
82034;SDS011;71599;49.892;18.914;2024-03-08T19:45:50;117.53;;;56.85;;
82034;SDS011;71599;49.892;18.914;2024-03-08T19:50:51;103.03;;;47.22;;
82034;SDS011;71599;49.892;18.914;2024-03-08T19:55:51;125.38;;;53.60;;
82034;SDS011;71599;49.892;18.914;2024-03-08T20:00:54;225.00;;;91.78;;
82034;SDS011;71599;49.892;18.914;2024-03-08T20:05:55;212.45;;;88.25;;
82034;SDS011;71599;49.892;18.914;2024-03-08T20:10:55;116.15;;;53.75;;
82034;SDS011;71599;49.892;18.914;2024-03-08T20:15:58;98.47;;;45.78;;
82034;SDS011;71599;49.892;18.914;2024-03-08T20:20:58;167.75;;;75.93;;
82034;SDS011;71599;49.892;18.914;2024-03-08T20:26:02;113.85;;;49.58;;
82034;SDS011;71599;49.892;18.914;2024-03-08T20:31:04;99.43;;;44.17;;
82034;SDS011;71599;49.892;18.914;2024-03-08T20:36:06;90.30;;;43.17;;
82034;SDS011;71599;49.892;18.914;2024-03-08T20:41:07;155.65;;;67.32;;
82034;SDS011;71599;49.892;18.914;2024-03-08T20:46:10;146.38;;;65.22;;
82034;SDS011;71599;49.892;18.914;2024-03-08T20:51:10;96.13;;;51.58;;
82034;SDS011;71599;49.892;18.914;2024-03-08T20:56:11;107.63;;;54.28;;
82034;SDS011;71599;49.892;18.914;2024-03-08T21:01:13;111.00;;;51.50;;
82034;SDS011;71599;49.892;18.914;2024-03-08T21:06:14;111.28;;;52.67;;
82034;SDS011;71599;49.892;18.914;2024-03-08T21:11:15;92.10;;;50.10;;
82034;SDS011;71599;49.892;18.914;2024-03-08T21:16:17;90.00;;;42.72;;
82034;SDS011;71599;49.892;18.914;2024-03-08T21:21:18;115.07;;;51.90;;
82034;SDS011;71599;49.892;18.914;2024-03-08T21:26:19;103.75;;;47.38;;
82034;SDS011;71599;49.892;18.914;2024-03-08T21:31:21;93.32;;;45.15;;
82034;SDS011;71599;49.892;18.914;2024-03-08T21:36:22;88.13;;;43.38;;
82034;SDS011;71599;49.892;18.914;2024-03-08T21:41:23;101.00;;;48.42;;
82034;SDS011;71599;49.892;18.914;2024-03-08T21:46:25;115.97;;;52.72;;
82034;SDS011;71599;49.892;18.914;2024-03-08T21:51:26;135.48;;;61.88;;
82034;SDS011;71599;49.892;18.914;2024-03-08T21:56:27;147.38;;;63.30;;
82034;SDS011;71599;49.892;18.914;2024-03-08T22:01:29;126.10;;;55.85;;
82034;SDS011;71599;49.892;18.914;2024-03-08T22:06:30;121.10;;;53.65;;
82034;SDS011;71599;49.892;18.914;2024-03-08T22:11:31;200.65;;;87.25;;
82034;SDS011;71599;49.892;18.914;2024-03-08T22:16:33;141.55;;;71.13;;
82034;SDS011;71599;49.892;18.914;2024-03-08T22:21:34;118.18;;;61.50;;
82034;SDS011;71599;49.892;18.914;2024-03-08T22:26:34;117.65;;;55.45;;
82034;SDS011;71599;49.892;18.914;2024-03-08T22:31:37;118.80;;;54.78;;
82034;SDS011;71599;49.892;18.914;2024-03-08T22:36:38;107.57;;;48.47;;
82034;SDS011;71599;49.892;18.914;2024-03-08T22:41:38;115.85;;;54.13;;
82034;SDS011;71599;49.892;18.914;2024-03-08T22:46:41;119.43;;;52.75;;
82034;SDS011;71599;49.892;18.914;2024-03-08T22:56:43;97.90;;;48.92;;
82034;SDS011;71599;49.892;18.914;2024-03-08T23:01:45;95.25;;;49.88;;
82034;SDS011;71599;49.892;18.914;2024-03-08T23:06:46;110.82;;;50.28;;
82034;SDS011;71599;49.892;18.914;2024-03-08T23:11:47;110.05;;;48.05;;
82034;SDS011;71599;49.892;18.914;2024-03-08T23:16:49;93.63;;;46.08;;
82034;SDS011;71599;49.892;18.914;2024-03-08T23:26:51;101.15;;;50.05;;
82034;SDS011;71599;49.892;18.914;2024-03-08T23:31:53;104.20;;;49.47;;
82034;SDS011;71599;49.892;18.914;2024-03-08T23:36:54;98.90;;;46.83;;
82034;SDS011;71599;49.892;18.914;2024-03-08T23:41:55;115.35;;;53.53;;
82034;SDS011;71599;49.892;18.914;2024-03-08T23:46:57;130.90;;;65.72;;
82034;SDS011;71599;49.892;18.914;2024-03-08T23:51:58;122.95;;;56.80;;
82034;SDS011;71599;49.892;18.914;2024-03-08T23:56:58;114.55;;;59.25;;
